Time,TemperatureF,DewpointF,PressureIn,WindDirection,WindDirectionDegrees,WindSpeedMPH,WindSpeedGustMPH,Humidity,HourlyPrecipIn,Conditions,Clouds,dailyrainin,SolarRadiationWatts/m^2,SoftwareType,DateUTC
2013-01-14 00:04:00,59.0,59.0,-100.00,SW,219,9.0,20.0,100,0.00,,,0.00,0.000000,,2013-01-14 05:04:00,
2013-01-14 00:10:00,60.0,60.0,-100.00,SW,223,8.0,19.0,100,0.00,,,0.00,0.000000,,2013-01-14 05:10:00,
2013-01-14 00:33:00,60.0,60.0,-100.00,SW,223,8.0,19.0,100,0.00,,,0.00,0.000000,,2013-01-14 05:33:00,
2013-01-14 00:43:00,60.0,60.0,-100.00,SW,223,8.0,19.0,100,0.00,,,0.00,0.000000,,2013-01-14 05:43:00,
2013-01-14 00:53:00,60.0,60.0,-100.00,SW,223,8.0,19.0,100,0.00,,,0.00,0.000000,,2013-01-14 05:53:00,
2013-01-14 01:03:00,60.0,60.0,-100.00,SW,223,8.0,19.0,100,0.00,,,0.00,0.000000,,2013-01-14 06:03:00,
2013-01-14 01:10:00,60.0,60.0,-100.00,SW,221,7.0,17.0,100,0.00,,,0.00,0.000000,,2013-01-14 06:10:00,
2013-01-14 01:33:00,60.0,60.0,-100.00,SW,221,7.0,17.0,100,0.00,,,0.00,0.000000,,2013-01-14 06:33:00,
2013-01-14 01:43:00,60.0,60.0,-100.00,SW,221,7.0,17.0,100,0.00,,,0.00,0.000000,,2013-01-14 06:43:00,
2013-01-14 01:53:00,60.0,60.0,-100.00,SW,221,7.0,17.0,100,0.00,,,0.00,0.000000,,2013-01-14 06:53:00,
2013-01-14 02:02:00,60.0,60.0,-100.00,SW,221,7.0,17.0,100,0.00,,,0.00,0.000000,,2013-01-14 07:02:00,
2013-01-14 02:10:00,57.0,57.0,-100.00,SW,222,6.0,13.0,100,0.02,,,0.02,0.000000,,2013-01-14 07:10:00,
2013-01-14 02:33:00,57.0,57.0,-100.00,SW,222,6.0,13.0,100,0.02,,,0.02,0.000000,,2013-01-14 07:33:00,
2013-01-14 02:43:00,57.0,57.0,-100.00,SW,222,6.0,13.0,100,0.02,,,0.02,0.000000,,2013-01-14 07:43:00,
2013-01-14 02:53:00,57.0,57.0,-100.00,SW,222,6.0,13.0,100,0.02,,,0.02,0.000000,,2013-01-14 07:53:00,
2013-01-14 03:02:00,57.0,57.0,-100.00,SW,222,6.0,13.0,100,0.02,,,0.02,0.000000,,2013-01-14 08:02:00,
2013-01-14 03:10:00,57.0,57.0,-100.00,SSW,210,9.0,21.0,100,0.22,,,0.24,0.000000,,2013-01-14 08:10:00,
2013-01-14 03:33:00,57.0,57.0,-100.00,SSW,210,9.0,21.0,100,0.22,,,0.24,0.000000,,2013-01-14 08:33:00,
2013-01-14 03:43:00,57.0,57.0,-100.00,SSW,210,9.0,21.0,100,0.22,,,0.24,0.000000,,2013-01-14 08:43:00,
2013-01-14 03:53:00,57.0,57.0,-100.00,SSW,210,9.0,21.0,100,0.22,,,0.24,0.000000,,2013-01-14 08:53:00,
2013-01-14 04:03:00,57.0,57.0,-100.00,SSW,210,9.0,21.0,100,0.22,,,0.24,0.000000,,2013-01-14 09:03:00,
2013-01-14 04:10:00,59.0,59.0,-100.00,SW,219,11.0,21.0,100,0.03,,,0.27,0.000000,,2013-01-14 09:10:00,
2013-01-14 04:34:00,59.0,59.0,-100.00,SW,219,11.0,21.0,100,0.03,,,0.27,0.000000,,2013-01-14 09:34:00,
2013-01-14 04:43:00,59.0,59.0,-100.00,SW,219,11.0,21.0,100,0.03,,,0.27,0.000000,,2013-01-14 09:43:00,
2013-01-14 04:53:00,59.0,59.0,-100.00,SW,219,11.0,21.0,100,0.03,,,0.27,0.000000,,2013-01-14 09:53:00,
2013-01-14 05:02:00,59.0,59.0,-100.00,SW,219,11.0,21.0,100,0.03,,,0.27,0.000000,,2013-01-14 10:02:00,
2013-01-14 05:10:00,57.0,57.0,-100.00,SW,218,12.0,25.0,100,0.01,,,0.28,0.000000,,2013-01-14 10:10:00,
2013-01-14 05:33:00,57.0,57.0,-100.00,SW,218,12.0,25.0,100,0.01,,,0.28,0.000000,,2013-01-14 10:33:00,
2013-01-14 05:43:00,57.0,57.0,-100.00,SW,218,12.0,25.0,100,0.01,,,0.28,0.000000,,2013-01-14 10:43:00,
2013-01-14 05:53:00,57.0,57.0,-100.00,SW,218,12.0,25.0,100,0.01,,,0.28,0.000000,,2013-01-14 10:53:00,
2013-01-14 06:02:00,57.0,57.0,-100.00,SW,218,12.0,25.0,100,0.01,,,0.28,0.000000,,2013-01-14 11:02:00,
2013-01-14 06:10:00,57.0,57.0,-100.00,SW,223,8.0,19.0,100,0.01,,,0.29,0.000000,,2013-01-14 11:10:00,
2013-01-14 06:43:00,57.0,57.0,-100.00,SW,223,8.0,19.0,100,0.01,,,0.29,0.000000,,2013-01-14 11:43:00,
2013-01-14 06:53:00,57.0,57.0,-100.00,SW,223,8.0,19.0,100,0.01,,,0.29,0.000000,,2013-01-14 11:53:00,
2013-01-14 07:03:00,57.0,57.0,-100.00,SW,223,8.0,19.0,100,0.01,,,0.29,0.000000,,2013-01-14 12:03:00,
2013-01-14 07:10:00,58.0,58.0,-100.00,SW,218,7.0,15.0,100,0.00,,,0.29,0.000000,,2013-01-14 12:10:00,
2013-01-14 07:33:00,58.0,58.0,-100.00,SW,218,7.0,15.0,100,0.00,,,0.29,0.000000,,2013-01-14 12:33:00,
2013-01-14 07:43:00,58.0,58.0,-100.00,SW,218,7.0,15.0,100,0.00,,,0.29,0.000000,,2013-01-14 12:43:00,
2013-01-14 07:53:00,58.0,58.0,-100.00,SW,218,7.0,15.0,100,0.00,,,0.29,0.000000,,2013-01-14 12:53:00,
2013-01-14 08:03:00,58.0,58.0,-100.00,SW,218,7.0,15.0,100,0.00,,,0.29,0.000000,,2013-01-14 13:03:00,
2013-01-14 08:10:00,58.0,58.0,-100.00,SSW,201,6.0,13.0,100,0.01,,,0.30,0.000000,,2013-01-14 13:10:00,
2013-01-14 08:34:00,58.0,58.0,-100.00,SSW,201,6.0,13.0,100,0.01,,,0.30,0.000000,,2013-01-14 13:34:00,
2013-01-14 08:43:00,58.0,58.0,-100.00,SSW,201,6.0,13.0,100,0.01,,,0.30,0.000000,,2013-01-14 13:43:00,
2013-01-14 08:53:00,58.0,58.0,-100.00,SSW,201,6.0,13.0,100,0.01,,,0.30,0.000000,,2013-01-14 13:53:00,
2013-01-14 09:03:00,58.0,58.0,-100.00,SSW,201,6.0,13.0,100,0.01,,,0.30,0.000000,,2013-01-14 14:03:00,
2013-01-14 09:10:00,58.0,58.0,-100.00,SSW,201,6.0,12.0,100,0.05,,,0.35,0.000000,,2013-01-14 14:10:00,
2013-01-14 09:33:00,58.0,58.0,-100.00,SSW,201,6.0,12.0,100,0.05,,,0.35,0.000000,,2013-01-14 14:33:00,
2013-01-14 09:43:00,58.0,58.0,-100.00,SSW,201,6.0,12.0,100,0.05,,,0.35,0.000000,,2013-01-14 14:43:00,
2013-01-14 09:53:00,58.0,58.0,-100.00,SSW,201,6.0,12.0,100,0.05,,,0.35,0.000000,,2013-01-14 14:53:00,
2013-01-14 10:03:00,58.0,58.0,-100.00,SSW,201,6.0,12.0,100,0.05,,,0.35,0.000000,,2013-01-14 15:03:00,
2013-01-14 10:10:00,57.0,57.0,-100.00,SW,227,4.0,11.0,100,0.01,,,0.36,0.000000,,2013-01-14 15:10:00,
2013-01-14 10:34:00,57.0,57.0,-100.00,SW,227,4.0,11.0,100,0.01,,,0.36,0.000000,,2013-01-14 15:34:00,
2013-01-14 10:43:00,57.0,57.0,-100.00,SW,227,4.0,11.0,100,0.01,,,0.36,0.000000,,2013-01-14 15:43:00,
2013-01-14 10:53:00,57.0,57.0,-100.00,SW,227,4.0,11.0,100,0.01,,,0.36,0.000000,,2013-01-14 15:53:00,
2013-01-14 11:03:00,57.0,57.0,-100.00,SW,227,4.0,11.0,100,0.01,,,0.36,0.000000,,2013-01-14 16:03:00,
2013-01-14 11:10:00,57.0,57.0,-100.00,SSW,212,4.0,18.0,100,0.04,,,0.40,0.000000,,2013-01-14 16:10:00,
2013-01-14 11:33:00,57.0,57.0,-100.00,SSW,212,4.0,18.0,100,0.04,,,0.40,0.000000,,2013-01-14 16:33:00,
2013-01-14 11:43:00,57.0,57.0,-100.00,SSW,212,4.0,18.0,100,0.04,,,0.40,0.000000,,2013-01-14 16:43:00,
2013-01-14 11:53:00,57.0,57.0,-100.00,SSW,212,4.0,18.0,100,0.04,,,0.40,0.000000,,2013-01-14 16:53:00,
2013-01-14 12:03:00,57.0,57.0,-100.00,SSW,212,4.0,18.0,100,0.04,,,0.40,0.000000,,2013-01-14 17:03:00,
2013-01-14 12:10:00,59.0,59.0,-100.00,SW,228,4.0,10.0,100,0.05,,,0.45,0.000000,,2013-01-14 17:10:00,
2013-01-14 12:34:00,59.0,59.0,-100.00,SW,228,4.0,10.0,100,0.05,,,0.45,0.000000,,2013-01-14 17:34:00,
2013-01-14 12:43:00,59.0,59.0,-100.00,SW,228,4.0,10.0,100,0.05,,,0.45,0.000000,,2013-01-14 17:43:00,
2013-01-14 12:54:00,59.0,59.0,-100.00,SW,228,4.0,10.0,100,0.05,,,0.45,0.000000,,2013-01-14 17:54:00,
2013-01-14 13:03:00,59.0,59.0,-100.00,SW,228,4.0,10.0,100,0.05,,,0.45,0.000000,,2013-01-14 18:03:00,
2013-01-14 13:10:00,58.0,58.0,-100.00,West,274,1.0,7.0,100,0.04,,,0.49,0.000000,,2013-01-14 18:10:00,
2013-01-14 13:33:00,58.0,58.0,-100.00,West,274,1.0,7.0,100,0.04,,,0.49,0.000000,,2013-01-14 18:33:00,
2013-01-14 13:43:00,58.0,58.0,-100.00,West,274,1.0,7.0,100,0.04,,,0.49,0.000000,,2013-01-14 18:43:00,
2013-01-14 13:53:00,58.0,58.0,-100.00,West,274,1.0,7.0,100,0.04,,,0.49,0.000000,,2013-01-14 18:53:00,
2013-01-14 14:03:00,58.0,58.0,-100.00,West,274,1.0,7.0,100,0.04,,,0.49,0.000000,,2013-01-14 19:03:00,
2013-01-14 14:10:00,58.0,58.0,-100.00,SE,142,2.0,4.0,100,0.01,,,0.50,0.000000,,2013-01-14 19:10:00,
2013-01-14 14:43:00,58.0,58.0,-100.00,SE,142,2.0,4.0,100,0.01,,,0.50,0.000000,,2013-01-14 19:43:00,
2013-01-14 14:53:00,58.0,58.0,-100.00,SE,142,2.0,4.0,100,0.01,,,0.50,0.000000,,2013-01-14 19:53:00,
2013-01-14 15:04:00,58.0,58.0,-100.00,SE,142,2.0,4.0,100,0.01,,,0.50,0.000000,,2013-01-14 20:04:00,
2013-01-14 15:10:00,59.0,59.0,-100.00,SSW,195,5.0,8.0,100,0.17,,,0.67,0.000000,,2013-01-14 20:10:00,
2013-01-14 15:33:00,59.0,59.0,-100.00,SSW,195,5.0,8.0,100,0.17,,,0.67,0.000000,,2013-01-14 20:33:00,
2013-01-14 15:43:00,59.0,59.0,-100.00,SSW,195,5.0,8.0,100,0.17,,,0.67,0.000000,,2013-01-14 20:43:00,
2013-01-14 15:53:00,59.0,59.0,-100.00,SSW,195,5.0,8.0,100,0.17,,,0.67,0.000000,,2013-01-14 20:53:00,
2013-01-14 16:03:00,59.0,59.0,-100.00,SSW,195,5.0,8.0,100,0.17,,,0.67,0.000000,,2013-01-14 21:03:00,
2013-01-14 16:10:00,59.0,59.0,-100.00,NNE,18,2.0,9.0,100,0.34,,,1.01,0.000000,,2013-01-14 21:10:00,
2013-01-14 16:33:00,59.0,59.0,-100.00,NNE,18,2.0,9.0,100,0.34,,,1.01,0.000000,,2013-01-14 21:33:00,
2013-01-14 16:43:00,59.0,59.0,-100.00,NNE,18,2.0,9.0,100,0.34,,,1.01,0.000000,,2013-01-14 21:43:00,
2013-01-14 16:53:00,59.0,59.0,-100.00,NNE,18,2.0,9.0,100,0.34,,,1.01,0.000000,,2013-01-14 21:53:00,
2013-01-14 17:03:00,59.0,59.0,-100.00,NNE,18,2.0,9.0,100,0.34,,,1.01,0.000000,,2013-01-14 22:03:00,
2013-01-14 17:10:00,59.0,59.0,-100.00,North,11,5.0,9.0,100,0.39,,,-99.99,0.000000,,2013-01-14 22:10:00,
2013-01-14 17:33:00,59.0,59.0,-100.00,North,11,5.0,9.0,100,0.39,,,-99.99,0.000000,,2013-01-14 22:33:00,
2013-01-14 17:43:00,59.0,59.0,-100.00,North,11,5.0,9.0,100,0.39,,,-99.99,0.000000,,2013-01-14 22:43:00,
2013-01-14 17:53:00,59.0,59.0,-100.00,North,11,5.0,9.0,100,0.39,,,-99.99,0.000000,,2013-01-14 22:53:00,
2013-01-14 18:03:00,59.0,59.0,-100.00,North,11,5.0,9.0,100,0.39,,,-99.99,0.000000,,2013-01-14 23:03:00,
2013-01-14 18:10:00,54.0,54.0,-100.00,East,93,7.0,15.0,100,0.12,,,1.52,0.000000,,2013-01-14 23:10:00,
2013-01-14 18:33:00,54.0,54.0,-100.00,East,93,7.0,15.0,100,0.12,,,1.52,0.000000,,2013-01-14 23:33:00,
2013-01-14 18:43:00,54.0,54.0,-100.00,East,93,7.0,15.0,100,0.12,,,1.52,0.000000,,2013-01-14 23:43:00,
2013-01-14 18:53:00,54.0,54.0,-100.00,East,93,7.0,15.0,100,0.12,,,1.52,0.000000,,2013-01-14 23:53:00,
2013-01-14 19:03:00,54.0,54.0,-100.00,East,93,7.0,15.0,100,0.12,,,1.52,0.000000,,2013-01-15 00:03:00,
2013-01-14 19:10:00,56.0,56.0,-100.00,North,-999,-999.0,-999.0,100,0.10,,,1.62,0.000000,,2013-01-15 00:10:00,
2013-01-14 19:33:00,56.0,56.0,-100.00,North,-999,-999.0,-999.0,100,0.10,,,1.62,0.000000,,2013-01-15 00:33:00,
2013-01-14 19:43:00,56.0,56.0,-100.00,North,-999,-999.0,-999.0,100,0.10,,,1.62,0.000000,,2013-01-15 00:43:00,
2013-01-14 19:53:00,56.0,56.0,-100.00,North,-999,-999.0,-999.0,100,0.10,,,1.62,0.000000,,2013-01-15 00:53:00,
2013-01-14 20:02:00,56.0,56.0,-100.00,North,-999,-999.0,-999.0,100,0.10,,,1.62,0.000000,,2013-01-15 01:02:00,
2013-01-14 21:10:00,54.0,54.0,-100.00,North,-999,-999.0,-999.0,100,-99.99,,,1.89,0.000000,,2013-01-15 02:10:00,
2013-01-14 21:33:00,54.0,54.0,-100.00,North,-999,-999.0,-999.0,100,-99.99,,,1.89,0.000000,,2013-01-15 02:33:00,
2013-01-14 21:43:00,54.0,54.0,-100.00,North,-999,-999.0,-999.0,100,-99.99,,,1.89,0.000000,,2013-01-15 02:43:00,
2013-01-14 21:53:00,54.0,54.0,-100.00,North,-999,-999.0,-999.0,100,-99.99,,,1.89,0.000000,,2013-01-15 02:53:00,
2013-01-14 22:03:00,54.0,54.0,-100.00,North,-999,-999.0,-999.0,100,-99.99,,,1.89,0.000000,,2013-01-15 03:03:00,
2013-01-14 22:10:00,53.0,53.0,-100.00,North,-999,-999.0,-999.0,100,0.05,,,1.94,0.000000,,2013-01-15 03:10:00,
2013-01-14 22:33:00,53.0,53.0,-100.00,North,-999,-999.0,-999.0,100,0.05,,,1.94,0.000000,,2013-01-15 03:33:00,
2013-01-14 22:43:00,53.0,53.0,-100.00,North,-999,-999.0,-999.0,100,0.05,,,1.94,0.000000,,2013-01-15 03:43:00,
2013-01-14 22:53:00,53.0,53.0,-100.00,North,-999,-999.0,-999.0,100,0.05,,,1.94,0.000000,,2013-01-15 03:53:00,
2013-01-14 23:03:00,53.0,53.0,-100.00,North,-999,-999.0,-999.0,100,0.05,,,1.94,0.000000,,2013-01-15 04:03:00,
2013-01-14 23:10:00,50.0,50.0,-100.00,North,-999,-999.0,-999.0,100,0.03,,,1.97,0.000000,,2013-01-15 04:10:00,
2013-01-14 23:33:00,50.0,50.0,-100.00,North,-999,-999.0,-999.0,100,0.03,,,1.97,0.000000,,2013-01-15 04:33:00,
2013-01-14 23:43:00,50.0,50.0,-100.00,North,-999,-999.0,-999.0,100,0.03,,,1.97,0.000000,,2013-01-15 04:43:00,
2013-01-14 23:52:00,50.0,50.0,-100.00,North,-999,-999.0,-999.0,100,0.03,,,1.97,0.000000,,2013-01-15 04:52:00,